createdAt,value
2018-11-22T00:01:52.040Z,27.47
2018-11-22T00:04:20.522Z,28.67
2018-11-22T00:06:48.949Z,27.43
2018-11-22T00:09:18.380Z,30.30
2018-11-22T00:11:47.016Z,26.67
2018-11-22T00:14:15.661Z,29.03
2018-11-22T00:16:44.112Z,28.53
2018-11-22T00:19:12.504Z,28.67
2018-11-22T00:21:40.938Z,31.80
2018-11-22T00:24:09.607Z,25.47
2018-11-22T00:26:38.048Z,28.53
2018-11-22T00:29:06.504Z,26.73
2018-11-22T00:31:35.041Z,26.00
2018-11-22T00:34:03.505Z,28.17
2018-11-22T00:36:32.001Z,27.60
2018-11-22T00:39:00.563Z,28.50
2018-11-22T00:41:28.912Z,28.27
2018-11-22T00:43:57.340Z,26.77
2018-11-22T00:46:25.777Z,28.13
2018-11-22T00:48:54.238Z,30.00
2018-11-22T00:51:23.690Z,28.37
2018-11-22T00:53:52.197Z,26.83
2018-11-22T00:56:20.633Z,27.20
2018-11-22T00:58:49.148Z,28.40
2018-11-22T01:01:19.971Z,26.33
2018-11-22T01:03:48.523Z,28.60
2018-11-22T01:06:16.967Z,26.23
2018-11-22T01:08:45.615Z,25.13
2018-11-22T01:11:14.113Z,25.97
2018-11-22T01:13:42.516Z,26.77
2018-11-22T01:16:10.955Z,25.90
2018-11-22T01:18:39.378Z,25.10
2018-11-22T01:21:07.918Z,26.40
2018-11-22T01:23:36.369Z,27.00
2018-11-22T01:26:05.238Z,27.43
2018-11-22T01:28:33.781Z,28.03
2018-11-22T01:31:02.252Z,24.63
2018-11-22T01:33:30.855Z,24.60
2018-11-22T01:35:59.351Z,26.73
2018-11-22T01:38:27.833Z,26.53
2018-11-22T01:40:56.287Z,25.30
2018-11-22T01:43:24.736Z,27.67
2018-11-22T01:45:53.215Z,27.13
2018-11-22T01:48:21.612Z,26.93
2018-11-22T01:50:49.990Z,28.87
2018-11-22T01:53:18.539Z,24.30
2018-11-22T01:55:47.984Z,23.40
2018-11-22T01:58:16.456Z,25.33
2018-11-22T02:00:44.918Z,24.13
2018-11-22T02:03:13.287Z,23.40
2018-11-22T02:05:41.769Z,25.93
2018-11-22T02:08:10.214Z,27.47
2018-11-22T02:10:38.798Z,24.40
2018-11-22T02:13:07.182Z,25.47
2018-11-22T02:15:35.595Z,25.90
2018-11-22T02:18:04.104Z,25.17
2018-11-22T02:20:32.493Z,25.93
2018-11-22T02:23:01.005Z,27.43
2018-11-22T02:25:30.333Z,27.37
2018-11-22T02:27:58.861Z,24.17
2018-11-22T02:30:28.346Z,24.07
2018-11-22T02:32:58.236Z,22.47
2018-11-22T02:35:26.967Z,22.27
2018-11-22T02:37:55.569Z,25.30
2018-11-22T02:40:24.903Z,24.73
2018-11-22T02:42:53.993Z,25.40
2018-11-22T02:45:23.973Z,28.60
2018-11-22T02:47:52.515Z,24.57
2018-11-22T02:50:22.082Z,25.00
2018-11-22T02:52:51.346Z,24.37
2018-11-22T02:55:19.919Z,21.40
2018-11-22T02:57:48.364Z,22.57
2018-11-22T03:00:34.367Z,23.83
2018-11-22T03:03:03.031Z,23.97
2018-11-22T03:05:31.885Z,24.73
2018-11-22T03:08:02.597Z,22.27
2018-11-22T03:10:31.012Z,23.60
2018-11-22T03:12:59.449Z,27.43
2018-11-22T03:15:27.906Z,21.67
2018-11-22T03:17:56.592Z,23.57
2018-11-22T03:20:25.216Z,23.33
2018-11-22T03:22:53.592Z,22.60
2018-11-22T03:25:22.308Z,23.13
2018-11-22T03:27:51.485Z,22.97
2018-11-22T03:30:21.160Z,22.97
2018-11-22T03:32:49.566Z,20.87
2018-11-22T03:35:19.580Z,25.17
2018-11-22T03:37:48.087Z,22.47
2018-11-22T03:40:18.104Z,22.97
2018-11-22T03:42:46.756Z,22.97
2018-11-22T03:45:15.995Z,24.50
2018-11-22T03:47:44.793Z,27.77
2018-11-22T03:50:15.281Z,23.67
2018-11-22T03:52:44.713Z,23.93
2018-11-22T03:55:14.603Z,23.27
2018-11-22T03:57:43.306Z,24.30
2018-11-22T04:00:17.145Z,28.17
2018-11-22T04:02:46.276Z,24.97
2018-11-22T04:05:16.160Z,25.77
2018-11-22T04:07:45.530Z,24.97
2018-11-22T04:10:15.871Z,25.33
2018-11-22T04:12:44.619Z,25.10
2018-11-22T04:15:13.826Z,23.37
2018-11-22T04:17:42.190Z,24.13
2018-11-22T04:20:15.958Z,23.13
2018-11-22T04:22:44.659Z,22.00
2018-11-22T04:25:14.202Z,23.93
2018-11-22T04:27:42.933Z,22.80
2018-11-22T04:30:14.360Z,24.50
2018-11-22T04:32:42.875Z,25.00
2018-11-22T04:35:13.042Z,21.37
2018-11-22T04:37:42.035Z,24.90
2018-11-22T04:40:13.115Z,23.23
2018-11-22T04:42:41.550Z,22.37
2018-11-22T04:45:10.821Z,20.20
2018-11-22T04:47:39.273Z,27.80
2018-11-22T04:50:09.437Z,23.00
2018-11-22T04:52:37.916Z,21.90
2018-11-22T04:55:06.838Z,22.03
2018-11-22T04:57:35.450Z,23.00
2018-11-22T05:00:04.589Z,22.67
2018-11-22T05:02:33.032Z,23.43
2018-11-22T05:05:01.995Z,22.77
2018-11-22T05:07:30.377Z,22.20
2018-11-22T05:09:58.864Z,21.80
2018-11-22T05:12:27.325Z,22.40
2018-11-22T05:14:55.844Z,24.37
2018-11-22T05:17:24.313Z,23.80
2018-11-22T05:19:52.721Z,22.17
2018-11-22T05:22:21.399Z,23.20
2018-11-22T05:24:49.920Z,20.10
2018-11-22T05:27:18.357Z,23.40
2018-11-22T05:29:46.832Z,22.47
2018-11-22T05:32:15.327Z,23.27
2018-11-22T05:34:43.820Z,22.17
2018-11-22T05:37:12.253Z,25.67
2018-11-22T05:39:40.691Z,23.93
2018-11-22T05:42:09.164Z,24.00
2018-11-22T05:44:37.576Z,23.30
2018-11-22T05:47:06.118Z,20.87
2018-11-22T05:49:34.552Z,23.47
2018-11-22T05:52:03.022Z,24.33
2018-11-22T05:54:31.511Z,20.70
2018-11-22T05:57:00.068Z,22.30
2018-11-22T05:59:28.553Z,23.60
2018-11-22T06:01:56.993Z,23.47
2018-11-22T06:04:26.595Z,25.97
2018-11-22T06:06:55.110Z,23.43
2018-11-22T06:09:23.572Z,20.17
2018-11-22T06:11:52.126Z,22.33
2018-11-22T06:14:21.557Z,22.53
2018-11-22T06:16:50.066Z,20.00
2018-11-22T06:19:18.583Z,21.83
2018-11-22T06:21:47.078Z,21.40
2018-11-22T06:24:15.663Z,21.93
2018-11-22T06:26:44.099Z,23.07
2018-11-22T06:29:12.877Z,22.43
2018-11-22T06:31:41.297Z,24.83
2018-11-22T06:34:09.931Z,24.23
2018-11-22T06:36:38.396Z,25.37
2018-11-22T06:39:08.822Z,21.80
2018-11-22T06:41:38.390Z,23.05
2018-11-22T06:44:07.123Z,21.07
2018-11-22T06:46:35.685Z,22.97
2018-11-22T06:49:04.426Z,22.90
2018-11-22T06:51:33.086Z,21.27
2018-11-22T06:54:01.730Z,24.17
2018-11-22T06:56:30.724Z,18.47
2018-11-22T06:58:59.389Z,20.87
2018-11-22T07:01:27.860Z,20.80
2018-11-22T07:03:56.274Z,20.10
2018-11-22T07:06:24.676Z,19.83
2018-11-22T07:08:53.179Z,21.77
2018-11-22T07:11:21.715Z,17.50
2018-11-22T07:13:50.319Z,19.40
2018-11-22T07:16:18.816Z,20.60
2018-11-22T07:18:47.385Z,21.43
2018-11-22T07:21:15.827Z,20.10
2018-11-22T07:23:44.351Z,18.10
2018-11-22T07:26:12.978Z,18.93
2018-11-22T07:28:42.404Z,20.30
2018-11-22T07:31:10.866Z,20.33
2018-11-22T07:33:40.714Z,20.30
2018-11-22T07:36:09.095Z,22.07
2018-11-22T07:38:37.773Z,21.07
2018-11-22T07:41:06.214Z,22.00
2018-11-22T07:43:35.693Z,22.33
2018-11-22T07:46:05.904Z,22.80
2018-11-22T07:48:34.366Z,19.77
2018-11-22T07:51:03.769Z,21.93
2018-11-22T07:53:32.342Z,24.30
2018-11-22T07:56:00.798Z,22.47
2018-11-22T07:58:29.312Z,24.20
2018-11-22T08:00:57.705Z,21.53
2018-11-22T08:03:26.237Z,21.43
2018-11-22T08:05:54.960Z,19.00
2018-11-22T08:08:23.395Z,23.10
2018-11-22T08:10:52.041Z,18.27
2018-11-22T08:13:20.445Z,25.23
2018-11-22T08:15:48.935Z,24.37
2018-11-22T08:18:17.465Z,23.40
2018-11-22T08:20:45.848Z,22.77
2018-11-22T08:23:14.420Z,21.90
2018-11-22T12:17:40.876Z,26.00
2018-11-22T12:20:10.641Z,25.93
2018-11-22T12:22:40.221Z,25.13
2018-11-22T12:25:10.940Z,26.13
2018-11-22T12:27:39.931Z,24.67
2018-11-22T12:30:11.524Z,25.40
2018-11-22T12:32:45.316Z,26.27
2018-11-22T12:36:16.816Z,24.93
2018-11-22T12:38:45.977Z,23.40
2018-11-22T12:41:14.690Z,28.93
2018-11-22T12:43:43.685Z,24.87
2018-11-22T12:46:12.261Z,23.57
2018-11-22T12:48:41.504Z,25.67
2018-11-22T12:51:10.017Z,25.67
2018-11-22T12:53:38.518Z,25.47
2018-11-22T12:56:07.196Z,28.40
2018-11-22T12:58:35.766Z,26.33
2018-11-22T13:01:04.454Z,27.97
2018-11-22T13:03:34.203Z,32.43
2018-11-22T13:06:02.858Z,26.23
2018-11-22T13:08:31.848Z,29.63
2018-11-22T13:11:00.318Z,30.00
2018-11-22T13:13:29.034Z,30.30
2018-11-22T13:15:57.459Z,31.07
2018-11-22T13:18:26.000Z,27.93
2018-11-22T13:20:54.557Z,30.10
2018-11-22T13:23:23.244Z,33.13
2018-11-22T13:25:51.787Z,31.30
2018-11-22T13:28:20.324Z,30.83
2018-11-22T13:30:49.123Z,29.30
2018-11-22T13:33:18.885Z,34.30
2018-11-22T13:35:48.720Z,30.33
2018-11-22T13:38:17.460Z,32.67
2018-11-22T13:40:46.059Z,31.30
2018-11-22T13:43:14.564Z,34.63
2018-11-22T13:45:43.337Z,35.77
2018-11-22T13:48:12.347Z,32.93
2018-11-22T13:50:42.151Z,35.33
2018-11-22T13:53:09.566Z,36.33
2018-11-22T13:55:38.078Z,37.50
2018-11-22T13:58:07.661Z,34.63
2018-11-22T14:00:36.234Z,36.50
2018-11-22T14:03:06.387Z,34.93
2018-11-22T14:05:34.945Z,39.57
2018-11-22T14:08:03.459Z,39.70
2018-11-22T14:10:32.142Z,34.70
2018-11-22T14:13:00.749Z,34.13
2018-11-22T14:15:30.582Z,42.97
2018-11-22T14:18:00.551Z,38.53
2018-11-22T14:20:30.801Z,39.03
2018-11-22T14:22:59.464Z,37.27
2018-11-22T14:25:28.323Z,36.90
2018-11-22T14:27:56.780Z,37.00
2018-11-22T14:30:27.403Z,33.97
2018-11-22T14:32:55.831Z,38.83
2018-11-22T14:35:25.438Z,36.87
2018-11-22T14:37:53.958Z,37.40
2018-11-22T14:40:24.111Z,37.87
2018-11-22T14:42:53.618Z,43.60
2018-11-22T14:45:23.112Z,34.67
2018-11-22T14:47:52.675Z,37.27
2018-11-22T14:50:25.068Z,33.20
2018-11-22T14:52:57.122Z,38.47
2018-11-22T14:55:25.644Z,37.50
2018-11-22T14:57:54.399Z,39.17
2018-11-22T15:01:52.145Z,35.10
2018-11-22T15:04:20.735Z,35.27
2018-11-22T15:06:49.270Z,38.80
2018-11-22T15:09:18.163Z,38.53
2018-11-22T15:11:46.908Z,31.97
2018-11-22T15:14:15.491Z,39.10
2018-11-22T15:16:46.126Z,42.53
2018-11-22T15:19:14.663Z,42.40
2018-11-22T15:21:43.176Z,37.07
2018-11-22T15:24:11.970Z,39.43
2018-11-22T15:26:40.595Z,42.63
2018-11-22T15:29:09.362Z,39.03
2018-11-22T15:31:38.128Z,42.87
2018-11-22T15:34:07.604Z,46.50
2018-11-22T15:36:36.217Z,41.93
2018-11-22T15:39:06.431Z,47.73
2018-11-22T15:41:35.119Z,42.47
2018-11-22T15:44:03.780Z,41.03
2018-11-22T15:46:32.389Z,44.30
2018-11-22T15:49:01.331Z,41.93
2018-11-22T15:51:30.027Z,41.50
2018-11-22T15:53:58.572Z,42.57
2018-11-22T15:56:31.051Z,40.43
2018-11-22T15:59:00.119Z,45.67
2018-11-22T16:01:28.714Z,40.47
2018-11-22T16:03:57.324Z,43.40
2018-11-22T16:06:25.965Z,45.60
2018-11-22T16:08:55.197Z,43.43
2018-11-22T16:11:23.986Z,38.30
2018-11-22T16:13:52.839Z,37.57
2018-11-22T16:16:22.396Z,40.87
2018-11-22T16:18:51.099Z,42.70
2018-11-22T16:21:20.059Z,41.60
2018-11-22T16:23:49.644Z,43.90
2018-11-22T16:26:18.960Z,41.30
2018-11-22T16:28:47.893Z,40.80
2018-11-22T16:31:16.748Z,44.33
2018-11-22T16:33:45.579Z,49.50
2018-11-22T16:36:15.176Z,45.47
2018-11-22T16:38:43.770Z,45.37
2018-11-22T16:41:12.434Z,42.20
2018-11-22T16:43:41.308Z,48.60
2018-11-22T16:46:09.870Z,47.13
2018-11-22T16:48:38.583Z,54.43
2018-11-22T16:51:07.390Z,44.83
2018-11-22T16:53:36.662Z,52.07
2018-11-22T16:56:05.325Z,46.13
2018-11-22T16:58:34.229Z,49.67
2018-11-22T17:01:02.783Z,49.13
2018-11-22T17:03:31.459Z,54.57
2018-11-22T17:06:00.066Z,57.30
2018-11-22T17:08:28.722Z,57.10
2018-11-22T17:10:57.328Z,59.70
2018-11-22T17:13:27.242Z,51.93
2018-11-22T17:15:55.864Z,55.07
2018-11-22T17:18:24.547Z,52.03
2018-11-22T17:20:53.351Z,46.20
2018-11-22T17:23:22.966Z,54.37
2018-11-22T17:25:51.596Z,53.40
2018-11-22T17:28:20.082Z,54.50
2018-11-22T17:30:49.724Z,54.33
2018-11-22T17:33:18.402Z,51.60
2018-11-22T17:35:47.127Z,57.13
2018-11-22T17:43:02.636Z,52.60
2018-11-22T17:45:33.643Z,49.33
2018-11-22T17:48:03.179Z,50.90
2018-11-22T17:50:33.571Z,51.50
2018-11-22T17:53:02.604Z,49.63
2018-11-22T17:55:32.742Z,53.60
2018-11-22T17:58:01.436Z,49.80
2018-11-22T18:00:31.721Z,54.63
2018-11-22T18:03:01.438Z,49.37
2018-11-22T18:05:30.265Z,54.20
2018-11-22T18:07:59.204Z,49.47
2018-11-22T18:10:29.513Z,55.67
2018-11-22T18:12:58.508Z,58.53
2018-11-22T18:15:27.715Z,48.30
2018-11-22T18:17:56.872Z,52.47
2018-11-22T18:20:26.771Z,49.43
2018-11-22T18:22:56.363Z,49.67
2018-11-22T18:25:27.233Z,51.13
2018-11-22T18:27:55.877Z,50.10
2018-11-22T18:30:26.680Z,46.80
2018-11-22T18:32:58.015Z,47.17
2018-11-22T18:35:26.535Z,49.73
2018-11-22T18:37:57.138Z,51.83
2018-11-22T18:40:27.137Z,50.63
2018-11-22T18:42:56.705Z,55.20
2018-11-22T18:45:30.500Z,56.23
2018-11-22T18:47:59.672Z,52.57
2018-11-22T18:50:29.181Z,57.50
2018-11-22T18:52:57.644Z,50.37
2018-11-22T18:55:26.237Z,51.20
2018-11-22T18:57:54.826Z,48.60
2018-11-22T19:00:25.105Z,48.17
2018-11-22T19:02:54.969Z,46.77
2018-11-22T19:05:23.652Z,45.30
2018-11-22T19:07:53.308Z,52.10
2018-11-22T19:10:23.397Z,51.90
2018-11-22T19:12:53.541Z,51.83
2018-11-22T19:15:23.465Z,50.30
2018-11-22T19:17:52.779Z,53.87
2018-11-22T19:20:25.495Z,52.83
2018-11-22T19:22:55.712Z,54.20
2018-11-22T19:25:24.648Z,50.83
2018-11-22T19:27:53.669Z,56.87
2018-11-22T19:30:25.587Z,56.40
2018-11-22T19:32:55.310Z,55.30
2018-11-22T19:35:25.231Z,56.90
2018-11-22T19:37:53.772Z,56.73
2018-11-22T19:40:29.104Z,53.67
2018-11-22T19:43:00.190Z,61.33
2018-11-22T19:45:30.207Z,52.37
2018-11-22T19:47:59.060Z,58.67
2018-11-22T19:50:30.438Z,56.63
2018-11-22T19:53:00.278Z,53.57
2018-11-22T19:55:30.324Z,54.13
2018-11-22T19:58:00.676Z,60.70
2018-11-22T20:00:29.640Z,55.90
2018-11-22T20:02:59.429Z,56.63
2018-11-22T20:05:29.203Z,56.73
2018-11-22T20:07:59.077Z,54.40
2018-11-22T20:10:30.648Z,52.80
2018-11-22T20:12:59.672Z,50.50
2018-11-22T20:15:28.288Z,56.83
2018-11-22T20:17:57.429Z,50.63
2018-11-22T20:20:26.506Z,55.07
2018-11-22T20:22:55.275Z,53.13
2018-11-22T20:25:24.010Z,51.40
2018-11-22T20:27:53.884Z,52.73
2018-11-22T20:30:25.182Z,51.67
2018-11-22T20:32:53.826Z,57.57
2018-11-22T20:35:22.886Z,57.27
2018-11-22T20:37:51.799Z,53.70
2018-11-22T20:40:21.583Z,54.87
2018-11-22T20:42:50.600Z,50.30
2018-11-22T20:45:20.411Z,54.23
2018-11-22T20:47:50.289Z,52.97
2018-11-22T20:50:20.075Z,55.33
2018-11-22T20:52:48.752Z,51.33
2018-11-22T20:55:20.841Z,49.67
2018-11-22T20:57:50.642Z,52.40
2018-11-22T21:00:21.439Z,52.53
2018-11-22T21:02:50.022Z,46.93
2018-11-22T21:05:20.377Z,48.97
2018-11-22T21:07:49.023Z,48.97
2018-11-22T21:10:19.169Z,48.37
2018-11-22T21:12:47.790Z,46.53
2018-11-22T21:15:19.921Z,46.30
2018-11-22T21:17:49.507Z,51.80
2018-11-22T21:20:19.267Z,46.27
2018-11-22T21:22:48.384Z,50.23
2018-11-22T21:25:18.209Z,45.40
2018-11-22T21:27:47.000Z,46.00
2018-11-22T21:30:20.098Z,51.63
2018-11-22T21:32:49.506Z,47.00
2018-11-22T21:35:18.556Z,52.00
2018-11-22T21:37:48.222Z,46.40
2018-11-22T21:40:18.379Z,49.07
2018-11-22T21:42:47.312Z,51.53
2018-11-22T21:45:18.503Z,47.43
2018-11-22T21:47:47.538Z,50.07
2018-11-22T21:50:17.192Z,50.20
2018-11-22T21:52:45.869Z,49.37
2018-11-22T21:55:16.608Z,48.73
2018-11-22T21:57:45.829Z,50.30
2018-11-22T22:00:18.758Z,51.10
2018-11-22T22:02:52.686Z,49.43
2018-11-22T22:05:18.815Z,47.17
2018-11-22T22:07:47.384Z,50.77
2018-11-22T22:10:18.708Z,47.67
2018-11-22T22:12:47.390Z,48.13
2018-11-22T22:15:19.730Z,48.87
2018-11-22T22:17:48.615Z,49.07
2018-11-22T22:20:24.098Z,45.80
2018-11-22T22:22:52.747Z,52.00
2018-11-22T22:25:22.351Z,50.43
2018-11-22T22:27:51.631Z,51.27
2018-11-22T22:30:21.530Z,49.20
2018-11-22T22:32:51.776Z,49.47
2018-11-22T22:35:20.171Z,54.23
2018-11-22T22:37:48.701Z,48.80
2018-11-22T22:40:20.155Z,52.40
2018-11-22T22:42:49.603Z,50.37
2018-11-22T22:45:19.777Z,46.03
2018-11-22T22:47:49.077Z,49.67
2018-11-22T22:50:19.715Z,49.23
2018-11-22T22:52:50.287Z,50.17
2018-11-22T22:55:18.833Z,49.73
2018-11-22T22:57:48.453Z,49.13
2018-11-22T23:00:26.852Z,45.87
2018-11-22T23:02:57.907Z,45.83
2018-11-22T23:05:27.277Z,45.30
2018-11-22T23:07:56.016Z,51.10
2018-11-22T23:10:25.079Z,53.57
2018-11-22T23:12:54.010Z,51.50
2018-11-22T23:15:22.738Z,51.13
2018-11-22T23:17:51.183Z,48.63
2018-11-22T23:20:21.108Z,52.03
2018-11-22T23:22:49.927Z,46.97
2018-11-22T23:25:19.507Z,44.87
2018-11-22T23:27:47.911Z,48.00
2018-11-22T23:30:19.574Z,47.67
2018-11-22T23:32:49.683Z,48.73
2018-11-22T23:35:18.540Z,50.17
2018-11-22T23:37:47.300Z,49.07
2018-11-22T23:40:18.095Z,47.70
2018-11-22T23:42:46.852Z,44.37
2018-11-22T23:45:17.002Z,47.80
2018-11-22T23:47:46.204Z,44.87
2018-11-22T23:50:17.171Z,45.93
2018-11-22T23:52:46.956Z,45.77
2018-11-22T23:55:15.798Z,46.60
2018-11-22T23:57:44.868Z,42.50
